sensor_id;sensor_type;location;lat;lon;timestamp;pressure;altitude;pressure_sealevel;temperature;humidity
21504;BME280;10913;51.992;9.228;2023-03-03T00:01:29;101086.31;;;3.02;99.20
21504;BME280;10913;51.992;9.228;2023-03-03T00:03:56;101069.88;;;3.05;98.97
21504;BME280;10913;51.992;9.228;2023-03-03T00:06:22;101075.16;;;3.06;98.71
21504;BME280;10913;51.992;9.228;2023-03-03T00:08:49;101069.13;;;3.07;98.53
21504;BME280;10913;51.992;9.228;2023-03-03T00:11:14;101069.00;;;3.04;98.71
21504;BME280;10913;51.992;9.228;2023-03-03T00:13:49;101074.22;;;3.04;98.91
21504;BME280;10913;51.992;9.228;2023-03-03T00:16:27;101078.63;;;3.05;98.94
21504;BME280;10913;51.992;9.228;2023-03-03T00:18:54;101088.22;;;3.06;98.78
21504;BME280;10913;51.992;9.228;2023-03-03T00:21:32;101074.34;;;3.07;98.64
21504;BME280;10913;51.992;9.228;2023-03-03T00:24:24;101078.66;;;3.07;98.65
21504;BME280;10913;51.992;9.228;2023-03-03T00:27:00;101076.88;;;3.06;98.39
21504;BME280;10913;51.992;9.228;2023-03-03T00:29:35;101066.38;;;3.04;98.49
21504;BME280;10913;51.992;9.228;2023-03-03T00:32:39;101060.34;;;3.05;98.25
21504;BME280;10913;51.992;9.228;2023-03-03T00:37:54;101069.00;;;3.04;98.21
21504;BME280;10913;51.992;9.228;2023-03-03T00:40:24;101064.56;;;3.02;98.94
21504;BME280;10913;51.992;9.228;2023-03-03T00:42:57;101063.34;;;2.92;99.66
21504;BME280;10913;51.992;9.228;2023-03-03T00:47:55;101057.91;;;2.86;99.88
21504;BME280;10913;51.992;9.228;2023-03-03T00:50:27;101051.69;;;2.83;99.94
21504;BME280;10913;51.992;9.228;2023-03-03T00:55:25;101064.59;;;2.78;100.00
21504;BME280;10913;51.992;9.228;2023-03-03T00:57:51;101064.59;;;2.78;100.00
21504;BME280;10913;51.992;9.228;2023-03-03T01:00:17;101070.69;;;2.79;100.00
21504;BME280;10913;51.992;9.228;2023-03-03T01:02:42;101063.75;;;2.79;100.00
21504;BME280;10913;51.992;9.228;2023-03-03T01:05:12;101069.84;;;2.80;99.94
21504;BME280;10913;51.992;9.228;2023-03-03T01:07:37;101068.03;;;2.77;100.00
21504;BME280;10913;51.992;9.228;2023-03-03T01:10:03;101067.13;;;2.76;100.00
21504;BME280;10913;51.992;9.228;2023-03-03T01:12:28;101061.03;;;2.76;100.00
21504;BME280;10913;51.992;9.228;2023-03-03T01:14:54;101066.31;;;2.78;99.90
21504;BME280;10913;51.992;9.228;2023-03-03T01:17:20;101061.16;;;2.79;99.61
21504;BME280;10913;51.992;9.228;2023-03-03T01:19:45;101066.38;;;2.79;99.67
21504;BME280;10913;51.992;9.228;2023-03-03T01:22:10;101069.88;;;2.81;99.73
21504;BME280;10913;51.992;9.228;2023-03-03T01:24:36;101070.00;;;2.84;99.38
21504;BME280;10913;51.992;9.228;2023-03-03T01:27:01;101073.56;;;2.86;99.17
21504;BME280;10913;51.992;9.228;2023-03-03T01:29:26;101081.44;;;2.88;98.95
21504;BME280;10913;51.992;9.228;2023-03-03T01:31:52;101063.13;;;2.86;98.91
21504;BME280;10913;51.992;9.228;2023-03-03T01:34:17;101061.47;;;2.88;99.11
21504;BME280;10913;51.992;9.228;2023-03-03T01:36:43;101061.47;;;2.88;98.95
21504;BME280;10913;51.992;9.228;2023-03-03T01:39:10;101065.78;;;2.88;99.05
21504;BME280;10913;51.992;9.228;2023-03-03T01:41:35;101071.78;;;2.85;99.04
21504;BME280;10913;51.992;9.228;2023-03-03T01:44:01;101074.28;;;2.82;99.28
21504;BME280;10913;51.992;9.228;2023-03-03T01:49:22;101083.63;;;2.75;99.39
21504;BME280;10913;51.992;9.228;2023-03-03T01:51:57;101081.78;;;2.73;99.87
21504;BME280;10913;51.992;9.228;2023-03-03T01:54:28;101084.38;;;2.73;99.94
21504;BME280;10913;51.992;9.228;2023-03-03T01:56:58;101083.44;;;2.71;99.85
21504;BME280;10913;51.992;9.228;2023-03-03T01:59:29;101084.31;;;2.71;100.00
21504;BME280;10913;51.992;9.228;2023-03-03T02:01:55;101079.88;;;2.69;100.00
21504;BME280;10913;51.992;9.228;2023-03-03T02:04:21;101082.38;;;2.66;100.00
21504;BME280;10913;51.992;9.228;2023-03-03T02:06:52;101098.72;;;2.62;100.00
21504;BME280;10913;51.992;9.228;2023-03-03T02:12:02;101081.41;;;2.64;100.00
21504;BME280;10913;51.992;9.228;2023-03-03T02:14:29;101080.47;;;2.62;100.00
21504;BME280;10913;51.992;9.228;2023-03-03T02:16:54;101080.19;;;2.54;100.00
21504;BME280;10913;51.992;9.228;2023-03-03T02:22:13;101077.91;;;2.39;100.00
21504;BME280;10913;51.992;9.228;2023-03-03T02:24:47;101080.31;;;2.35;100.00
21504;BME280;10913;51.992;9.228;2023-03-03T02:27:15;101076.69;;;2.31;100.00
21504;BME280;10913;51.992;9.228;2023-03-03T02:29:40;101081.91;;;2.31;100.00
21504;BME280;10913;51.992;9.228;2023-03-03T02:32:05;101084.47;;;2.30;100.00
21504;BME280;10913;51.992;9.228;2023-03-03T02:34:44;101075.88;;;2.32;100.00
21504;BME280;10913;51.992;9.228;2023-03-03T02:37:09;101077.72;;;2.35;100.00
21504;BME280;10913;51.992;9.228;2023-03-03T02:39:35;101083.81;;;2.35;100.00
21504;BME280;10913;51.992;9.228;2023-03-03T02:44:44;101084.47;;;2.30;100.00
21504;BME280;10913;51.992;9.228;2023-03-03T02:47:10;101089.63;;;2.28;100.00
21504;BME280;10913;51.992;9.228;2023-03-03T02:49:36;101085.34;;;2.30;100.00
21504;BME280;10913;51.992;9.228;2023-03-03T02:52:04;101088.78;;;2.29;100.00
21504;BME280;10913;51.992;9.228;2023-03-03T02:54:30;101083.56;;;2.29;100.00
21504;BME280;10913;51.992;9.228;2023-03-03T02:56:56;101084.34;;;2.27;100.00
21504;BME280;10913;51.992;9.228;2023-03-03T02:59:22;101080.84;;;2.26;100.00
21504;BME280;10913;51.992;9.228;2023-03-03T03:01:48;101083.31;;;2.23;100.00
21504;BME280;10913;51.992;9.228;2023-03-03T03:04:15;101091.09;;;2.22;100.00
21504;BME280;10913;51.992;9.228;2023-03-03T03:06:42;101092.88;;;2.23;100.00
21504;BME280;10913;51.992;9.228;2023-03-03T03:09:08;101085.81;;;2.20;100.00
21504;BME280;10913;51.992;9.228;2023-03-03T03:11:34;101083.16;;;2.19;100.00
21504;BME280;10913;51.992;9.228;2023-03-03T03:14:01;101078.00;;;2.20;100.00
21504;BME280;10913;51.992;9.228;2023-03-03T03:16:26;101071.13;;;2.22;100.00
21504;BME280;10913;51.992;9.228;2023-03-03T03:18:52;101066.63;;;2.18;100.00
21504;BME280;10913;51.992;9.228;2023-03-03T03:21:17;101077.91;;;2.17;100.00
21504;BME280;10913;51.992;9.228;2023-03-03T03:23:43;101074.47;;;2.18;100.00
21504;BME280;10913;51.992;9.228;2023-03-03T03:26:09;101064.94;;;2.19;100.00
21504;BME280;10913;51.992;9.228;2023-03-03T03:28:34;101064.03;;;2.18;100.00
21504;BME280;10913;51.992;9.228;2023-03-03T03:31:01;101069.34;;;2.21;100.00
21504;BME280;10913;51.992;9.228;2023-03-03T03:33:26;101085.09;;;2.24;100.00
21504;BME280;10913;51.992;9.228;2023-03-03T03:35:55;101086.88;;;2.25;100.00
21504;BME280;10913;51.992;9.228;2023-03-03T03:38:22;101091.28;;;2.26;100.00
21504;BME280;10913;51.992;9.228;2023-03-03T03:40:48;101084.97;;;2.21;100.00
21504;BME280;10913;51.992;9.228;2023-03-03T03:43:13;101090.94;;;2.17;100.00
21504;BME280;10913;51.992;9.228;2023-03-03T03:45:41;101095.13;;;2.14;100.00
21504;BME280;10913;51.992;9.228;2023-03-03T03:48:07;101085.53;;;2.13;100.00
21504;BME280;10913;51.992;9.228;2023-03-03T03:50:32;101094.28;;;2.15;100.00
21504;BME280;10913;51.992;9.228;2023-03-03T03:52:58;101103.06;;;2.17;100.00
21504;BME280;10913;51.992;9.228;2023-03-03T03:55:23;101091.75;;;2.16;100.00
21504;BME280;10913;51.992;9.228;2023-03-03T03:57:49;101097.91;;;2.18;100.00
21504;BME280;10913;51.992;9.228;2023-03-03T04:00:14;101092.78;;;2.21;100.00
21504;BME280;10913;51.992;9.228;2023-03-03T04:02:40;101091.03;;;2.20;100.00
21504;BME280;10913;51.992;9.228;2023-03-03T04:05:06;101091.88;;;2.19;100.00
21504;BME280;10913;51.992;9.228;2023-03-03T04:07:32;101098.75;;;2.17;100.00
21504;BME280;10913;51.992;9.228;2023-03-03T04:09:58;101101.22;;;2.14;100.00
21504;BME280;10913;51.992;9.228;2023-03-03T04:12:23;101105.47;;;2.12;100.00
21504;BME280;10913;51.992;9.228;2023-03-03T04:14:49;101093.28;;;2.11;100.00
21504;BME280;10913;51.992;9.228;2023-03-03T04:17:19;101086.28;;;2.10;100.00
21504;BME280;10913;51.992;9.228;2023-03-03T04:19:44;101084.50;;;2.09;100.00
21504;BME280;10913;51.992;9.228;2023-03-03T04:22:11;101081.59;;;2.01;100.00
21504;BME280;10913;51.992;9.228;2023-03-03T04:24:38;101088.03;;;1.89;100.00
21504;BME280;10913;51.992;9.228;2023-03-03T04:27:03;101089.31;;;1.78;100.00
21504;BME280;10913;51.992;9.228;2023-03-03T04:29:29;101091.59;;;1.70;100.00
21504;BME280;10913;51.992;9.228;2023-03-03T04:31:54;101090.63;;;1.68;100.00
21504;BME280;10913;51.992;9.228;2023-03-03T04:34:20;101082.88;;;1.69;100.00
21504;BME280;10913;51.992;9.228;2023-03-03T04:36:45;101083.91;;;1.73;100.00
21504;BME280;10913;51.992;9.228;2023-03-03T04:39:11;101070.97;;;1.75;100.00
21504;BME280;10913;51.992;9.228;2023-03-03T04:41:36;101078.97;;;1.79;100.00
21504;BME280;10913;51.992;9.228;2023-03-03T04:44:02;101081.59;;;1.81;100.00
21504;BME280;10913;51.992;9.228;2023-03-03T04:46:27;101092.97;;;1.83;100.00
21504;BME280;10913;51.992;9.228;2023-03-03T04:48:52;101086.06;;;1.83;100.00
21504;BME280;10913;51.992;9.228;2023-03-03T04:51:18;101089.63;;;1.85;100.00
21504;BME280;10913;51.992;9.228;2023-03-03T04:53:43;101093.03;;;1.84;100.00
21504;BME280;10913;51.992;9.228;2023-03-03T04:56:08;101099.16;;;1.85;100.00
21504;BME280;10913;51.992;9.228;2023-03-03T04:58:34;101104.34;;;1.85;100.00
21504;BME280;10913;51.992;9.228;2023-03-03T05:00:59;101104.34;;;1.85;100.00
21504;BME280;10913;51.992;9.228;2023-03-03T05:03:25;101104.22;;;1.82;100.00
21504;BME280;10913;51.992;9.228;2023-03-03T05:05:51;101107.78;;;1.84;100.00
21504;BME280;10913;51.992;9.228;2023-03-03T05:08:17;101111.13;;;1.80;100.00
21504;BME280;10913;51.992;9.228;2023-03-03T05:10:42;101117.97;;;1.78;100.00
21504;BME280;10913;51.992;9.228;2023-03-03T05:13:08;101122.78;;;1.68;100.00
21504;BME280;10913;51.992;9.228;2023-03-03T05:15:34;101120.88;;;1.64;100.00
21504;BME280;10913;51.992;9.228;2023-03-03T05:17:59;101123.47;;;1.64;100.00
21504;BME280;10913;51.992;9.228;2023-03-03T05:20:25;101121.63;;;1.62;100.00
21504;BME280;10913;51.992;9.228;2023-03-03T05:22:51;101122.50;;;1.62;100.00
21504;BME280;10913;51.992;9.228;2023-03-03T05:25:16;101134.63;;;1.62;100.00
21504;BME280;10913;51.992;9.228;2023-03-03T05:27:42;101131.16;;;1.61;100.00
21504;BME280;10913;51.992;9.228;2023-03-03T05:30:09;101132.25;;;1.66;100.00
21504;BME280;10913;51.992;9.228;2023-03-03T05:32:34;101133.06;;;1.65;100.00
21504;BME280;10913;51.992;9.228;2023-03-03T05:35:00;101140.94;;;1.67;100.00
21504;BME280;10913;51.992;9.228;2023-03-03T05:37:25;101138.41;;;1.68;100.00
21504;BME280;10913;51.992;9.228;2023-03-03T05:39:51;101138.41;;;1.68;100.00
21504;BME280;10913;51.992;9.228;2023-03-03T05:42:16;101141.00;;;1.68;100.00
21504;BME280;10913;51.992;9.228;2023-03-03T05:44:42;101138.41;;;1.68;100.00
21504;BME280;10913;51.992;9.228;2023-03-03T05:47:07;101138.53;;;1.71;100.00
21504;BME280;10913;51.992;9.228;2023-03-03T05:49:33;101122.09;;;1.72;100.00
21504;BME280;10913;51.992;9.228;2023-03-03T05:51:59;101126.34;;;1.70;100.00
21504;BME280;10913;51.992;9.228;2023-03-03T05:54:24;101129.78;;;1.69;100.00
21504;BME280;10913;51.992;9.228;2023-03-03T05:56:50;101134.84;;;1.66;100.00
21504;BME280;10913;51.992;9.228;2023-03-03T05:59:15;101128.81;;;1.67;100.00
21504;BME280;10913;51.992;9.228;2023-03-03T06:01:40;101119.22;;;1.66;100.00
21504;BME280;10913;51.992;9.228;2023-03-03T06:04:06;101115.78;;;1.67;100.00
21504;BME280;10913;51.992;9.228;2023-03-03T06:06:32;101122.78;;;1.68;100.00
21504;BME280;10913;51.992;9.228;2023-03-03T06:08:58;101121.00;;;1.67;100.00
21504;BME280;10913;51.992;9.228;2023-03-03T06:11:23;101126.22;;;1.67;100.00
21504;BME280;10913;51.992;9.228;2023-03-03T06:13:49;101121.88;;;1.68;100.00
21504;BME280;10913;51.992;9.228;2023-03-03T06:16:14;101117.56;;;1.68;100.00
21504;BME280;10913;51.992;9.228;2023-03-03T06:18:39;101128.94;;;1.70;100.00
21504;BME280;10913;51.992;9.228;2023-03-03T06:21:04;101132.44;;;1.71;100.00
21504;BME280;10913;51.992;9.228;2023-03-03T06:23:33;101128.81;;;1.67;100.00
21504;BME280;10913;51.992;9.228;2023-03-03T06:25:58;101131.41;;;1.67;100.00
21504;BME280;10913;51.992;9.228;2023-03-03T06:28:24;101131.41;;;1.67;100.00
21504;BME280;10913;51.992;9.228;2023-03-03T06:30:56;101141.00;;;1.68;100.00
21504;BME280;10913;51.992;9.228;2023-03-03T06:33:22;101145.31;;;1.68;100.00
21504;BME280;10913;51.992;9.228;2023-03-03T06:35:49;101141.00;;;1.68;100.00
21504;BME280;10913;51.992;9.228;2023-03-03T06:38:14;101147.25;;;1.72;100.00
21504;BME280;10913;51.992;9.228;2023-03-03T06:40:40;101150.75;;;1.72;100.00
21504;BME280;10913;51.992;9.228;2023-03-03T06:43:05;101156.84;;;1.73;100.00
21504;BME280;10913;51.992;9.228;2023-03-03T06:45:30;101156.78;;;1.71;100.00
21504;BME280;10913;51.992;9.228;2023-03-03T06:47:56;101164.59;;;1.71;100.00
21504;BME280;10913;51.992;9.228;2023-03-03T06:50:21;101165.47;;;1.72;100.00
21504;BME280;10913;51.992;9.228;2023-03-03T06:52:47;101160.28;;;1.72;100.00
21504;BME280;10913;51.992;9.228;2023-03-03T06:55:17;101166.38;;;1.72;100.00
21504;BME280;10913;51.992;9.228;2023-03-03T06:57:45;101177.75;;;1.75;100.00
21504;BME280;10913;51.992;9.228;2023-03-03T07:00:18;101171.72;;;1.76;100.00
21504;BME280;10913;51.992;9.228;2023-03-03T07:02:54;101184.75;;;1.76;100.00
21504;BME280;10913;51.992;9.228;2023-03-03T07:05:23;101190.00;;;1.77;100.00
21504;BME280;10913;51.992;9.228;2023-03-03T07:07:50;101201.31;;;1.78;100.00
21504;BME280;10913;51.992;9.228;2023-03-03T07:10:27;101201.31;;;1.78;100.00
21504;BME280;10913;51.992;9.228;2023-03-03T07:12:53;101198.66;;;1.76;100.00
21504;BME280;10913;51.992;9.228;2023-03-03T07:15:22;101196.13;;;1.78;100.00
21504;BME280;10913;51.992;9.228;2023-03-03T07:17:52;101201.31;;;1.78;100.00
21504;BME280;10913;51.992;9.228;2023-03-03T07:20:24;101202.06;;;1.75;100.00
21504;BME280;10913;51.992;9.228;2023-03-03T07:22:52;101208.94;;;1.73;100.00
21504;BME280;10913;51.992;9.228;2023-03-03T07:25:31;101199.41;;;1.73;100.00
21504;BME280;10913;51.992;9.228;2023-03-03T07:28:19;101197.69;;;1.74;100.00
21504;BME280;10913;51.992;9.228;2023-03-03T07:30:46;101204.00;;;1.79;100.00
21504;BME280;10913;51.992;9.228;2023-03-03T07:33:34;101204.09;;;1.82;100.00
21504;BME280;10913;51.992;9.228;2023-03-03T07:36:01;101208.56;;;1.85;99.99
21504;BME280;10913;51.992;9.228;2023-03-03T07:40:55;101213.91;;;1.88;99.83
21504;BME280;10913;51.992;9.228;2023-03-03T07:48:35;101217.03;;;2.00;99.18
21504;BME280;10913;51.992;9.228;2023-03-03T07:51:04;101220.72;;;2.05;98.96
21504;BME280;10913;51.992;9.228;2023-03-03T07:53:33;101219.13;;;2.08;98.60
21504;BME280;10913;51.992;9.228;2023-03-03T07:56:00;101230.59;;;2.12;98.35
21504;BME280;10913;51.992;9.228;2023-03-03T07:58:38;101232.50;;;2.16;98.25
21504;BME280;10913;51.992;9.228;2023-03-03T08:01:42;101238.53;;;2.15;98.11
21504;BME280;10913;51.992;9.228;2023-03-03T08:06:57;101244.72;;;2.17;98.03
21504;BME280;10913;51.992;9.228;2023-03-03T08:14:33;101244.56;;;2.14;97.89
21504;BME280;10913;51.992;9.228;2023-03-03T08:16:59;101248.81;;;2.12;98.01
21504;BME280;10913;51.992;9.228;2023-03-03T08:19:25;101246.22;;;2.12;97.89
21504;BME280;10913;51.992;9.228;2023-03-03T08:21:55;101239.22;;;2.11;98.02
21504;BME280;10913;51.992;9.228;2023-03-03T08:24:24;101238.41;;;2.12;98.09
21504;BME280;10913;51.992;9.228;2023-03-03T08:26:49;101244.56;;;2.14;98.05
21504;BME280;10913;51.992;9.228;2023-03-03T08:29:14;101233.47;;;2.18;97.96
21504;BME280;10913;51.992;9.228;2023-03-03T08:31:40;101237.06;;;2.22;98.02
21504;BME280;10913;51.992;9.228;2023-03-03T08:34:05;101241.38;;;2.21;97.77
21504;BME280;10913;51.992;9.228;2023-03-03T08:36:31;101234.66;;;2.26;97.53
21504;BME280;10913;51.992;9.228;2023-03-03T08:38:56;101237.19;;;2.25;97.61
21504;BME280;10913;51.992;9.228;2023-03-03T08:41:21;101232.09;;;2.28;97.37
21504;BME280;10913;51.992;9.228;2023-03-03T08:43:47;101231.34;;;2.30;97.53
21504;BME280;10913;51.992;9.228;2023-03-03T08:46:13;101234.03;;;2.32;97.44
21504;BME280;10913;51.992;9.228;2023-03-03T08:48:38;101244.66;;;2.36;97.48
21504;BME280;10913;51.992;9.228;2023-03-03T08:51:03;101244.81;;;2.41;97.62
21504;BME280;10913;51.992;9.228;2023-03-03T08:53:29;101245.06;;;2.47;96.96
21504;BME280;10913;51.992;9.228;2023-03-03T08:55:57;101248.00;;;2.55;96.61
21504;BME280;10913;51.992;9.228;2023-03-03T08:58:23;101246.47;;;2.60;96.12
21504;BME280;10913;51.992;9.228;2023-03-03T09:00:48;101245.69;;;2.62;96.08
21504;BME280;10913;51.992;9.228;2023-03-03T09:03:13;101251.78;;;2.63;95.86
21504;BME280;10913;51.992;9.228;2023-03-03T09:05:39;101250.22;;;2.66;95.72
21504;BME280;10913;51.992;9.228;2023-03-03T09:08:07;101239.78;;;2.66;95.51
21504;BME280;10913;51.992;9.228;2023-03-03T09:10:32;101246.72;;;2.66;95.73
21504;BME280;10913;51.992;9.228;2023-03-03T09:13:23;101246.00;;;2.70;95.85
21504;BME280;10913;51.992;9.228;2023-03-03T09:15:48;101250.53;;;2.74;95.85
21504;BME280;10913;51.992;9.228;2023-03-03T09:18:20;101251.47;;;2.76;95.88
21504;BME280;10913;51.992;9.228;2023-03-03T09:20:52;101255.03;;;2.78;95.86
21504;BME280;10913;51.992;9.228;2023-03-03T09:28:47;101255.41;;;2.87;94.93
21504;BME280;10913;51.992;9.228;2023-03-03T09:31:30;101253.59;;;2.86;94.92
21504;BME280;10913;51.992;9.228;2023-03-03T09:34:00;101252.78;;;2.87;94.66
21504;BME280;10913;51.992;9.228;2023-03-03T09:36:36;101256.91;;;2.82;94.92
21504;BME280;10913;51.992;9.228;2023-03-03T09:39:24;101249.00;;;2.79;95.17
21504;BME280;10913;51.992;9.228;2023-03-03T09:44:40;101257.75;;;2.81;95.70
21504;BME280;10913;51.992;9.228;2023-03-03T09:48:02;101257.06;;;2.85;95.50
21504;BME280;10913;51.992;9.228;2023-03-03T09:50:44;101255.03;;;2.78;95.25
21504;BME280;10913;51.992;9.228;2023-03-03T09:53:32;101259.59;;;2.84;95.54
21504;BME280;10913;51.992;9.228;2023-03-03T10:05:03;101266.22;;;3.19;95.30
21504;BME280;10913;51.992;9.228;2023-03-03T10:10:26;101259.72;;;3.31;94.65
21504;BME280;10913;51.992;9.228;2023-03-03T10:18:21;101263.78;;;3.47;93.44
21504;BME280;10913;51.992;9.228;2023-03-03T10:23:35;101263.31;;;3.57;92.58
21504;BME280;10913;51.992;9.228;2023-03-03T10:42:02;101266.72;;;3.78;91.35
21504;BME280;10913;51.992;9.228;2023-03-03T10:44:51;101265.03;;;3.80;90.80
21504;BME280;10913;51.992;9.228;2023-03-03T10:50:26;101270.25;;;4.04;91.04
21504;BME280;10913;51.992;9.228;2023-03-03T10:53:18;101271.19;;;4.06;90.56
21504;BME280;10913;51.992;9.228;2023-03-03T10:56:14;101273.03;;;4.09;90.48
21504;BME280;10913;51.992;9.228;2023-03-03T11:02:31;101264.69;;;4.19;90.10
21504;BME280;10913;51.992;9.228;2023-03-03T11:07:50;101266.41;;;4.19;89.40
21504;BME280;10913;51.992;9.228;2023-03-03T11:21:19;101267.91;;;4.37;89.52
21504;BME280;10913;51.992;9.228;2023-03-03T11:32:07;101257.22;;;4.57;88.98
21504;BME280;10913;51.992;9.228;2023-03-03T11:40:18;101254.06;;;4.67;88.50
21504;BME280;10913;51.992;9.228;2023-03-03T11:42:54;101253.38;;;4.72;88.32
21504;BME280;10913;51.992;9.228;2023-03-03T11:45:36;101254.41;;;4.77;88.26
21504;BME280;10913;51.992;9.228;2023-03-03T11:48:22;101245.88;;;4.84;88.18
21504;BME280;10913;51.992;9.228;2023-03-03T11:51:05;101247.91;;;4.93;87.62
21504;BME280;10913;51.992;9.228;2023-03-03T11:56:24;101242.34;;;5.11;87.42
21504;BME280;10913;51.992;9.228;2023-03-03T11:58:59;101243.44;;;5.17;87.21
21504;BME280;10913;51.992;9.228;2023-03-03T12:01:29;101239.09;;;5.18;86.84
21504;BME280;10913;51.992;9.228;2023-03-03T12:04:00;101235.50;;;5.14;86.63
21504;BME280;10913;51.992;9.228;2023-03-03T12:12:05;101223.59;;;5.26;87.13
21504;BME280;10913;51.992;9.228;2023-03-03T12:17:40;101216.72;;;5.29;86.61
21504;BME280;10913;51.992;9.228;2023-03-03T12:20:17;101220.47;;;5.37;86.22
21504;BME280;10913;51.992;9.228;2023-03-03T12:25:38;101209.41;;;5.49;86.13
21504;BME280;10913;51.992;9.228;2023-03-03T12:28:10;101215.00;;;5.61;85.81
21504;BME280;10913;51.992;9.228;2023-03-03T12:36:40;101200.59;;;5.77;85.44
21504;BME280;10913;51.992;9.228;2023-03-03T12:42:09;101186.00;;;5.86;86.11
21504;BME280;10913;51.992;9.228;2023-03-03T12:44:44;101191.06;;;5.80;85.60
21504;BME280;10913;51.992;9.228;2023-03-03T12:47:24;101183.97;;;5.76;85.94
21504;BME280;10913;51.992;9.228;2023-03-03T13:03:10;101170.75;;;6.05;85.73
21504;BME280;10913;51.992;9.228;2023-03-03T13:16:42;101160.03;;;6.30;84.78
21504;BME280;10913;51.992;9.228;2023-03-03T13:19:18;101162.81;;;6.36;84.58
21504;BME280;10913;51.992;9.228;2023-03-03T13:21:54;101150.06;;;6.51;84.30
21504;BME280;10913;51.992;9.228;2023-03-03T13:26:57;101150.53;;;6.73;83.58
21504;BME280;10913;51.992;9.228;2023-03-03T13:29:53;101142.75;;;6.76;83.20
21504;BME280;10913;51.992;9.228;2023-03-03T13:32:22;101155.03;;;6.77;83.06
21504;BME280;10913;51.992;9.228;2023-03-03T13:35:08;101148.97;;;6.79;82.98
21504;BME280;10913;51.992;9.228;2023-03-03T13:37:41;101148.97;;;6.79;83.06
21504;BME280;10913;51.992;9.228;2023-03-03T13:40:44;101145.44;;;6.79;82.97
21504;BME280;10913;51.992;9.228;2023-03-03T13:43:21;101143.47;;;6.70;82.73
21504;BME280;10913;51.992;9.228;2023-03-03T13:51:30;101136.16;;;6.95;82.91
21504;BME280;10913;51.992;9.228;2023-03-03T13:59:35;101129.41;;;7.07;82.89
21504;BME280;10913;51.992;9.228;2023-03-03T14:05:07;101129.97;;;7.35;81.65
21504;BME280;10913;51.992;9.228;2023-03-03T14:07:48;101129.31;;;7.46;81.01
21504;BME280;10913;51.992;9.228;2023-03-03T14:10:32;101131.06;;;7.47;81.30
21504;BME280;10913;51.992;9.228;2023-03-03T14:13:07;101121.66;;;7.58;81.21
21504;BME280;10913;51.992;9.228;2023-03-03T14:15:39;101123.56;;;7.67;80.80
21504;BME280;10913;51.992;9.228;2023-03-03T14:18:23;101121.00;;;7.70;80.63
21504;BME280;10913;51.992;9.228;2023-03-03T14:20:55;101115.72;;;7.70;80.69
21504;BME280;10913;51.992;9.228;2023-03-03T14:26:10;101115.53;;;7.61;80.34
21504;BME280;10913;51.992;9.228;2023-03-03T14:28:41;101107.44;;;7.49;80.95
21504;BME280;10913;51.992;9.228;2023-03-03T14:33:55;101107.25;;;7.40;81.13
21504;BME280;10913;51.992;9.228;2023-03-03T14:36:28;101099.28;;;7.34;81.35
21504;BME280;10913;51.992;9.228;2023-03-03T14:38:55;101103.63;;;7.32;81.54
21504;BME280;10913;51.992;9.228;2023-03-03T14:41:22;101098.44;;;7.35;81.37
21504;BME280;10913;51.992;9.228;2023-03-03T14:44:37;101096.59;;;7.31;81.53
21504;BME280;10913;51.992;9.228;2023-03-03T14:47:27;101094.13;;;7.38;81.29
21504;BME280;10913;51.992;9.228;2023-03-03T14:49:55;101095.03;;;7.42;81.25
21504;BME280;10913;51.992;9.228;2023-03-03T14:52:26;101091.59;;;7.44;81.37
21504;BME280;10913;51.992;9.228;2023-03-03T14:54:59;101079.25;;;7.42;81.25
21504;BME280;10913;51.992;9.228;2023-03-03T15:06:09;101065.56;;;7.58;81.03
21504;BME280;10913;51.992;9.228;2023-03-03T15:08:39;101064.69;;;7.57;80.88
21504;BME280;10913;51.992;9.228;2023-03-03T15:11:20;101061.97;;;7.53;80.99
21504;BME280;10913;51.992;9.228;2023-03-03T15:13:50;101062.66;;;7.44;81.41
21504;BME280;10913;51.992;9.228;2023-03-03T15:16:23;101057.38;;;7.43;81.58
21504;BME280;10913;51.992;9.228;2023-03-03T15:22:17;101057.34;;;7.41;81.72
21504;BME280;10913;51.992;9.228;2023-03-03T15:27:21;101049.28;;;7.31;82.40
21504;BME280;10913;51.992;9.228;2023-03-03T15:32:45;101046.44;;;7.20;82.44
21504;BME280;10913;51.992;9.228;2023-03-03T15:35:38;101042.72;;;7.09;82.94
21504;BME280;10913;51.992;9.228;2023-03-03T15:43:13;101041.41;;;6.87;83.71
21504;BME280;10913;51.992;9.228;2023-03-03T15:48:48;101032.63;;;6.85;83.98
21504;BME280;10913;51.992;9.228;2023-03-03T15:51:42;101037.78;;;6.79;84.18
21504;BME280;10913;51.992;9.228;2023-03-03T15:57:34;101040.06;;;6.64;84.79
21504;BME280;10913;51.992;9.228;2023-03-03T16:00:19;101039.97;;;6.59;85.14
21504;BME280;10913;51.992;9.228;2023-03-03T16:02:57;101046.00;;;6.55;85.16
21504;BME280;10913;51.992;9.228;2023-03-03T16:13:58;101047.94;;;6.25;85.95
21504;BME280;10913;51.992;9.228;2023-03-03T16:16:36;101045.22;;;6.20;86.14
21504;BME280;10913;51.992;9.228;2023-03-03T16:19:17;101044.19;;;6.13;86.36
21504;BME280;10913;51.992;9.228;2023-03-03T16:29:44;101051.72;;;5.98;87.06
21504;BME280;10913;51.992;9.228;2023-03-03T16:32:16;101060.31;;;5.93;87.14
21504;BME280;10913;51.992;9.228;2023-03-03T16:40:26;101064.19;;;5.74;87.87
21504;BME280;10913;51.992;9.228;2023-03-03T16:45:46;101070.78;;;5.60;88.48
21504;BME280;10913;51.992;9.228;2023-03-03T16:51:04;101063.59;;;5.51;88.88
21504;BME280;10913;51.992;9.228;2023-03-03T16:53:45;101063.50;;;5.48;89.04
21504;BME280;10913;51.992;9.228;2023-03-03T16:56:23;101063.38;;;5.43;89.11
21504;BME280;10913;51.992;9.228;2023-03-03T17:02:45;101067.38;;;5.29;88.98
21504;BME280;10913;51.992;9.228;2023-03-03T17:11:14;101062.22;;;5.01;89.09
21504;BME280;10913;51.992;9.228;2023-03-03T17:16:38;101063.53;;;4.85;89.35
21504;BME280;10913;51.992;9.228;2023-03-03T17:41:05;101072.53;;;4.08;90.00
21504;BME280;10913;51.992;9.228;2023-03-03T17:46:11;101079.06;;;3.94;90.81
21504;BME280;10913;51.992;9.228;2023-03-03T17:49:22;101080.50;;;3.86;91.28